Time;durP1;ratioP1;P1;durP2;ratioP2;P2;SDS_P1;SDS_P2;PMS_P1;PMS_P2;Temp;Humidity;BMP_temperature;BMP_pressure;BME280_temperature;BME280_humidity;BME280_pressure;Samples;Min_cycle;Max_cycle;Signal;HPM_P1;HPM_P2
2022/10/13 00:02:16;;;;;;;12.80;4.33;;;;;;;;;;3384114;42;20091;-59
2022/10/13 00:04:48;;;;;;;12.30;4.10;;;;;;;;;;3383557;42;20099;-62
2022/10/13 00:07:19;;;;;;;9.10;3.42;;;;;;;;;;3384674;42;20146;-60
2022/10/13 00:09:50;;;;;;;9.95;3.80;;;;;;;;;;3384775;42;20086;-60
2022/10/13 00:12:21;;;;;;;11.48;3.95;;;;;;;;;;3384312;42;20091;-60
2022/10/13 00:14:52;;;;;;;9.47;3.63;;;;;;;;;;3383699;42;20623;-60
2022/10/13 00:17:24;;;;;;;8.75;3.75;;;;;;;;;;3383620;42;20474;-60
2022/10/13 00:19:55;;;;;;;12.65;3.80;;;;;;;;;;3383647;42;20118;-59
2022/10/13 00:22:26;;;;;;;8.88;3.55;;;;;;;;;;3380092;42;20175;-62
2022/10/13 00:24:57;;;;;;;11.40;3.58;;;;;;;;;;3383347;42;20150;-62
2022/10/13 00:27:29;;;;;;;8.70;3.73;;;;;;;;;;3383544;42;20188;-60
2022/10/13 00:30:00;;;;;;;8.38;3.85;;;;;;;;;;3380690;42;20169;-66
2022/10/13 00:32:31;;;;;;;9.23;3.95;;;;;;;;;;3383369;42;20286;-59
2022/10/13 00:35:02;;;;;;;11.13;3.90;;;;;;;;;;3383460;42;20087;-59
2022/10/13 00:37:34;;;;;;;10.05;4.38;;;;;;;;;;3381234;42;20557;-58
2022/10/13 00:40:06;;;;;;;11.60;4.23;;;;;;;;;;3383122;42;20087;-62
2022/10/13 00:42:40;;;;;;;10.68;3.67;;;;;;;;;;3383443;42;20102;-61
2022/10/13 00:45:28;;;;;;;8.15;3.75;;;;;;;;;;3383441;42;20168;-60
2022/10/13 00:48:00;;;;;;;9.30;3.88;;;;;;;;;;3383345;42;20094;-61
2022/10/13 00:50:34;;;;;;;12.18;3.72;;;;;;;;;;3383487;42;20114;-59
2022/10/13 00:53:06;;;;;;;10.07;3.67;;;;;;;;;;3383468;42;20117;-60
2022/10/13 00:55:37;;;;;;;10.15;3.47;;;;;;;;;;3386899;42;20094;-57
2022/10/13 00:58:10;;;;;;;11.52;3.90;;;;;;;;;;3381627;42;20098;-60
2022/10/13 01:00:44;;;;;;;9.70;3.80;;;;;;;;;;3384612;42;20470;-59
2022/10/13 01:03:18;;;;;;;9.48;3.78;;;;;;;;;;3377570;42;20109;-59
2022/10/13 01:05:50;;;;;;;9.20;3.50;;;;;;;;;;3373785;42;20097;-61
2022/10/13 01:08:22;;;;;;;8.60;3.50;;;;;;;;;;3375960;42;20098;-61
2022/10/13 01:11:18;;;;;;;10.20;3.78;;;;;;;;;;3383362;42;20726;-60
2022/10/13 01:13:52;;;;;;;8.25;3.60;;;;;;;;;;3382650;42;20099;-59
2022/10/13 01:16:45;;;;;;;11.50;3.67;;;;;;;;;;3384110;42;20558;-60
2022/10/13 01:19:44;;;;;;;8.70;3.80;;;;;;;;;;3383166;42;20099;-59
2022/10/13 01:22:28;;;;;;;7.70;3.38;;;;;;;;;;3380796;42;20094;-59
2022/10/13 01:25:14;;;;;;;9.88;4.07;;;;;;;;;;3380261;42;20094;-57
2022/10/13 01:28:06;;;;;;;10.43;4.45;;;;;;;;;;3382114;42;20508;-59
2022/10/13 01:30:42;;;;;;;9.77;4.20;;;;;;;;;;3383940;42;20608;-59
2022/10/13 01:33:17;;;;;;;10.30;4.00;;;;;;;;;;3382724;42;20098;-60
2022/10/13 01:36:13;;;;;;;11.43;4.38;;;;;;;;;;3381897;42;20107;-61
2022/10/13 01:39:20;;;;;;;12.50;4.70;;;;;;;;;;3380887;42;20112;-60
2022/10/13 01:41:54;;;;;;;13.27;5.30;;;;;;;;;;3382447;42;20129;-60
2022/10/13 01:44:33;;;;;;;13.70;5.32;;;;;;;;;;3375876;42;20168;-61
2022/10/13 01:47:04;;;;;;;13.00;4.93;;;;;;;;;;3375575;42;20090;-62
2022/10/13 01:49:35;;;;;;;14.93;5.07;;;;;;;;;;3375722;42;20098;-60
2022/10/13 01:52:09;;;;;;;14.85;5.03;;;;;;;;;;3375772;42;20098;-61
2022/10/13 01:54:40;;;;;;;13.38;4.50;;;;;;;;;;3382613;42;20189;-62
2022/10/13 01:57:32;;;;;;;12.77;5.63;;;;;;;;;;3380436;42;20119;-61
2022/10/13 02:00:08;;;;;;;9.80;4.80;;;;;;;;;;3382942;42;20489;-60
2022/10/13 02:02:59;;;;;;;13.63;4.32;;;;;;;;;;3382983;42;20466;-63
2022/10/13 02:05:33;;;;;;;10.88;4.40;;;;;;;;;;3367222;42;20103;-58
2022/10/13 02:08:12;;;;;;;13.98;4.60;;;;;;;;;;3383871;42;20517;-59
2022/10/13 02:10:51;;;;;;;10.05;4.20;;;;;;;;;;3382732;42;20462;-60
2022/10/13 02:13:23;;;;;;;12.50;4.07;;;;;;;;;;3382849;42;20086;-61
2022/10/13 02:15:56;;;;;;;11.25;3.85;;;;;;;;;;3382685;42;20104;-61
2022/10/13 02:18:30;;;;;;;8.82;3.85;;;;;;;;;;3382864;42;20192;-60
2022/10/13 02:21:01;;;;;;;8.60;4.38;;;;;;;;;;3382440;42;20102;-60
2022/10/13 02:23:32;;;;;;;10.07;4.32;;;;;;;;;;3379339;42;20090;-63
2022/10/13 02:26:04;;;;;;;10.40;4.00;;;;;;;;;;3381732;42;20091;-61
2022/10/13 02:28:38;;;;;;;12.15;3.65;;;;;;;;;;3382918;42;20086;-63
2022/10/13 02:31:09;;;;;;;7.95;3.80;;;;;;;;;;3373333;42;20520;-59
2022/10/13 02:33:40;;;;;;;9.60;3.78;;;;;;;;;;3382576;42;20110;-60
2022/10/13 02:36:12;;;;;;;10.13;3.95;;;;;;;;;;3381208;42;20603;-59
2022/10/13 02:38:43;;;;;;;8.23;3.90;;;;;;;;;;3379150;42;20094;-60
2022/10/13 02:41:14;;;;;;;9.23;3.95;;;;;;;;;;3382990;42;20078;-60
2022/10/13 02:43:45;;;;;;;9.93;3.55;;;;;;;;;;3382486;42;20109;-60
2022/10/13 02:46:16;;;;;;;8.23;3.15;;;;;;;;;;3382429;42;20098;-62
2022/10/13 02:48:48;;;;;;;8.88;3.67;;;;;;;;;;3382302;42;20516;-61
2022/10/13 02:51:19;;;;;;;9.93;3.43;;;;;;;;;;3380900;42;20183;-61
2022/10/13 02:53:50;;;;;;;8.05;3.63;;;;;;;;;;3382695;42;20176;-62
2022/10/13 02:56:21;;;;;;;6.95;3.28;;;;;;;;;;3383085;42;20114;-64
2022/10/13 02:58:52;;;;;;;8.93;3.30;;;;;;;;;;3380851;42;20654;-60
2022/10/13 03:01:24;;;;;;;7.85;3.38;;;;;;;;;;3390467;42;20172;-62
2022/10/13 03:03:55;;;;;;;9.23;3.60;;;;;;;;;;3381892;42;20545;-62
2022/10/13 03:06:26;;;;;;;9.57;3.60;;;;;;;;;;3382635;42;20172;-62
2022/10/13 03:08:58;;;;;;;8.27;3.30;;;;;;;;;;3382642;42;20095;-60
2022/10/13 03:11:29;;;;;;;7.65;3.40;;;;;;;;;;3381751;42;20101;-57
2022/10/13 03:14:01;;;;;;;8.50;3.38;;;;;;;;;;3389507;42;20168;-62
2022/10/13 03:16:32;;;;;;;7.80;3.07;;;;;;;;;;3382658;42;20562;-61
2022/10/13 03:19:03;;;;;;;10.13;3.63;;;;;;;;;;3382295;42;20087;-59
2022/10/13 03:21:38;;;;;;;7.93;2.97;;;;;;;;;;3382662;42;20097;-61
2022/10/13 03:24:10;;;;;;;8.25;3.25;;;;;;;;;;3382269;42;20093;-63
2022/10/13 03:26:41;;;;;;;7.90;3.10;;;;;;;;;;3382252;42;20102;-59
2022/10/13 03:29:14;;;;;;;7.50;3.00;;;;;;;;;;3382335;42;20150;-62
2022/10/13 03:31:45;;;;;;;7.53;3.00;;;;;;;;;;3381977;42;20162;-64
2022/10/13 03:34:16;;;;;;;7.03;2.85;;;;;;;;;;3381432;42;20173;-64
2022/10/13 03:36:47;;;;;;;7.10;2.75;;;;;;;;;;3381689;42;21036;-61
2022/10/13 03:39:19;;;;;;;7.22;3.08;;;;;;;;;;3381806;42;20103;-61
2022/10/13 03:41:50;;;;;;;8.13;3.17;;;;;;;;;;3380848;42;20150;-62
2022/10/13 03:44:21;;;;;;;7.75;3.30;;;;;;;;;;3380035;42;20470;-61
2022/10/13 03:46:52;;;;;;;7.88;3.15;;;;;;;;;;3376541;42;20099;-61
2022/10/13 03:49:23;;;;;;;10.80;3.40;;;;;;;;;;3376017;42;20645;-61
2022/10/13 03:51:55;;;;;;;7.95;3.63;;;;;;;;;;3380460;42;20109;-59
2022/10/13 03:54:26;;;;;;;9.27;3.80;;;;;;;;;;3380328;42;20165;-62
2022/10/13 03:56:57;;;;;;;10.73;4.45;;;;;;;;;;3387055;42;20083;-61
2022/10/13 03:59:29;;;;;;;8.25;3.75;;;;;;;;;;3383031;42;20481;-61
2022/10/13 04:02:00;;;;;;;13.98;3.95;;;;;;;;;;3383595;42;20098;-60
2022/10/13 04:04:31;;;;;;;11.18;4.25;;;;;;;;;;3382120;42;20589;-61
2022/10/13 04:07:02;;;;;;;9.20;4.07;;;;;;;;;;3381425;42;20099;-61
2022/10/13 04:09:34;;;;;;;11.57;4.05;;;;;;;;;;3383369;42;20098;-60
2022/10/13 04:12:05;;;;;;;9.40;4.43;;;;;;;;;;3383251;42;20091;-60
2022/10/13 04:14:36;;;;;;;8.80;3.83;;;;;;;;;;3383009;42;20567;-63
2022/10/13 04:17:07;;;;;;;8.95;4.25;;;;;;;;;;3383269;42;20101;-65
2022/10/13 04:19:39;;;;;;;8.70;3.90;;;;;;;;;;3383410;42;20152;-64
2022/10/13 04:22:10;;;;;;;8.70;4.15;;;;;;;;;;3383079;42;20098;-62
2022/10/13 04:24:41;;;;;;;10.07;4.20;;;;;;;;;;3383166;42;20118;-64
2022/10/13 04:27:15;;;;;;;7.70;3.70;;;;;;;;;;3380561;42;20095;-62
2022/10/13 04:29:46;;;;;;;9.75;4.57;;;;;;;;;;3383490;42;20564;-61
2022/10/13 04:32:18;;;;;;;10.73;4.20;;;;;;;;;;3383458;42;20087;-63
2022/10/13 04:34:49;;;;;;;9.32;4.07;;;;;;;;;;3383423;42;20152;-61
2022/10/13 04:37:20;;;;;;;9.32;4.40;;;;;;;;;;3381327;42;20500;-62
2022/10/13 04:39:51;;;;;;;9.98;5.10;;;;;;;;;;3383499;42;20109;-62
2022/10/13 04:42:23;;;;;;;10.55;4.78;;;;;;;;;;3382681;42;20155;-63
2022/10/13 04:44:54;;;;;;;9.30;4.50;;;;;;;;;;3383340;42;20106;-61
2022/10/13 04:47:25;;;;;;;11.20;5.07;;;;;;;;;;3383225;42;20138;-62
2022/10/13 04:49:56;;;;;;;10.18;4.68;;;;;;;;;;3383273;42;20160;-60
2022/10/13 04:52:27;;;;;;;8.88;4.53;;;;;;;;;;3383195;42;20596;-59
2022/10/13 04:54:59;;;;;;;9.63;4.75;;;;;;;;;;3382899;42;20217;-61
2022/10/13 04:57:30;;;;;;;10.60;4.70;;;;;;;;;;3382997;42;20167;-55
2022/10/13 05:00:02;;;;;;;11.05;5.22;;;;;;;;;;3379581;42;20102;-60
2022/10/13 05:02:34;;;;;;;10.88;4.95;;;;;;;;;;3379157;42;20113;-58
2022/10/13 05:05:06;;;;;;;11.05;4.95;;;;;;;;;;3380217;42;20154;-65
2022/10/13 05:07:38;;;;;;;10.65;5.13;;;;;;;;;;3377644;42;20500;-60
2022/10/13 05:10:09;;;;;;;11.33;4.83;;;;;;;;;;3377569;42;20182;-57
2022/10/13 05:12:40;;;;;;;11.25;4.78;;;;;;;;;;3379208;42;20079;-61
2022/10/13 05:15:11;;;;;;;10.45;5.40;;;;;;;;;;3374861;42;20193;-62
2022/10/13 05:17:42;;;;;;;11.80;5.10;;;;;;;;;;3377808;42;20103;-63
2022/10/13 05:20:15;;;;;;;10.25;4.60;;;;;;;;;;3381740;42;20097;-61
2022/10/13 05:22:46;;;;;;;13.97;5.67;;;;;;;;;;3375086;42;20097;-64
2022/10/13 05:25:18;;;;;;;10.48;4.40;;;;;;;;;;3390137;42;20101;-61
2022/10/13 05:27:49;;;;;;;10.00;4.47;;;;;;;;;;3385881;42;20104;-61
2022/10/13 05:30:20;;;;;;;10.68;4.50;;;;;;;;;;3383108;42;20091;-61
2022/10/13 05:32:51;;;;;;;9.60;4.85;;;;;;;;;;3383057;42;20629;-62
2022/10/13 05:35:23;;;;;;;11.23;4.67;;;;;;;;;;3381723;42;20094;-61
2022/10/13 05:37:54;;;;;;;8.45;4.07;;;;;;;;;;3384404;42;20493;-63
2022/10/13 05:40:27;;;;;;;10.25;4.70;;;;;;;;;;3384060;42;20113;-61
2022/10/13 05:42:59;;;;;;;10.73;4.68;;;;;;;;;;3379881;42;20611;-62
2022/10/13 05:45:31;;;;;;;11.32;5.10;;;;;;;;;;3383284;42;20091;-62
2022/10/13 05:48:02;;;;;;;10.77;4.70;;;;;;;;;;3389181;42;20091;-60
2022/10/13 05:50:34;;;;;;;12.23;4.82;;;;;;;;;;3383111;42;20114;-61
2022/10/13 05:53:05;;;;;;;10.40;5.00;;;;;;;;;;3380832;42;20102;-63
2022/10/13 05:55:37;;;;;;;10.40;4.68;;;;;;;;;;3382939;42;20087;-61
2022/10/13 05:58:08;;;;;;;14.10;4.93;;;;;;;;;;3382777;42;20098;-61
2022/10/13 06:00:39;;;;;;;13.83;4.80;;;;;;;;;;3382854;42;20149;-61
2022/10/13 06:03:16;;;;;;;11.13;5.20;;;;;;;;;;3373358;42;20205;-60
2022/10/13 06:05:47;;;;;;;10.65;5.13;;;;;;;;;;3375507;42;20500;-61
2022/10/13 06:08:18;;;;;;;11.55;5.65;;;;;;;;;;3379713;42;20621;-65
2022/10/13 06:10:49;;;;;;;9.65;4.63;;;;;;;;;;3381927;42;20091;-62
2022/10/13 06:13:20;;;;;;;12.13;5.17;;;;;;;;;;3385837;42;20094;-61
2022/10/13 06:15:52;;;;;;;13.50;4.82;;;;;;;;;;3382515;42;20180;-61
2022/10/13 06:18:23;;;;;;;11.32;4.68;;;;;;;;;;3382346;42;20091;-63
2022/10/13 06:20:54;;;;;;;11.95;4.97;;;;;;;;;;3377554;42;20114;-60
2022/10/13 06:23:25;;;;;;;12.52;4.85;;;;;;;;;;3380225;42;20095;-60
2022/10/13 06:25:57;;;;;;;11.53;5.00;;;;;;;;;;3380434;42;20172;-62
2022/10/13 06:28:28;;;;;;;13.05;5.10;;;;;;;;;;3380249;42;20142;-62
2022/10/13 06:30:59;;;;;;;10.63;4.78;;;;;;;;;;3380081;42;20113;-60
2022/10/13 06:33:30;;;;;;;12.63;4.68;;;;;;;;;;3380404;42;21081;-63
2022/10/13 06:36:05;;;;;;;12.10;5.03;;;;;;;;;;3373401;42;20099;-62
2022/10/13 06:38:37;;;;;;;12.57;4.50;;;;;;;;;;3376503;42;20118;-62
2022/10/13 06:41:08;;;;;;;11.32;5.57;;;;;;;;;;3378918;42;20111;-61
2022/10/13 06:43:39;;;;;;;12.02;4.90;;;;;;;;;;3376209;42;20099;-63
2022/10/13 06:46:11;;;;;;;10.93;5.22;;;;;;;;;;3377670;42;20099;-61
2022/10/13 06:48:42;;;;;;;10.80;4.93;;;;;;;;;;3381856;42;20573;-61
2022/10/13 06:51:14;;;;;;;12.10;4.60;;;;;;;;;;3378470;42;20091;-62
2022/10/13 06:53:45;;;;;;;13.02;5.05;;;;;;;;;;3379922;42;20091;-62
2022/10/13 06:56:16;;;;;;;12.20;5.25;;;;;;;;;;3380064;42;20566;-61
2022/10/13 06:58:47;;;;;;;13.07;5.22;;;;;;;;;;3380479;42;20099;-63
2022/10/13 07:01:19;;;;;;;15.20;5.30;;;;;;;;;;3381068;42;20099;-60
2022/10/13 07:03:50;;;;;;;9.47;4.77;;;;;;;;;;3380432;42;20501;-64
2022/10/13 07:06:21;;;;;;;13.20;4.80;;;;;;;;;;3373149;42;20091;-62
2022/10/13 07:08:53;;;;;;;11.68;5.05;;;;;;;;;;3378426;42;20083;-61
2022/10/13 07:11:24;;;;;;;14.50;5.35;;;;;;;;;;3380183;42;20099;-63
2022/10/13 07:13:55;;;;;;;12.68;4.93;;;;;;;;;;3377596;42;20091;-63
2022/10/13 07:16:27;;;;;;;10.10;5.03;;;;;;;;;;3378764;42;20090;-64
2022/10/13 07:18:58;;;;;;;13.27;5.38;;;;;;;;;;3379354;42;20095;-62
2022/10/13 07:21:29;;;;;;;10.95;5.03;;;;;;;;;;3378911;42;20099;-62
2022/10/13 07:24:01;;;;;;;11.38;4.78;;;;;;;;;;3377051;42;20166;-61
2022/10/13 07:26:32;;;;;;;12.57;4.68;;;;;;;;;;3377750;42;20098;-63
2022/10/13 07:29:04;;;;;;;10.27;4.73;;;;;;;;;;3372421;42;20186;-61
2022/10/13 07:31:35;;;;;;;11.70;4.60;;;;;;;;;;3380273;42;20102;-63
2022/10/13 07:34:07;;;;;;;11.65;4.63;;;;;;;;;;3379062;42;20109;-61
2022/10/13 07:36:40;;;;;;;11.23;4.80;;;;;;;;;;3382998;42;20087;-61
2022/10/13 07:39:12;;;;;;;9.68;4.63;;;;;;;;;;3378973;42;20125;-62
2022/10/13 07:41:43;;;;;;;12.70;5.37;;;;;;;;;;3383316;42;20496;-61
2022/10/13 07:44:14;;;;;;;11.93;5.07;;;;;;;;;;3383587;42;20091;-60
2022/10/13 07:46:46;;;;;;;11.38;4.55;;;;;;;;;;3382638;42;20090;-62
2022/10/13 07:49:17;;;;;;;10.57;4.90;;;;;;;;;;3383597;42;20090;-59
2022/10/13 07:51:48;;;;;;;11.55;5.13;;;;;;;;;;3384943;42;20504;-60
2022/10/13 07:54:19;;;;;;;11.17;4.90;;;;;;;;;;3384443;42;20150;-59
2022/10/13 07:56:51;;;;;;;12.20;4.50;;;;;;;;;;3384020;42;20549;-60
2022/10/13 07:59:22;;;;;;;10.68;4.90;;;;;;;;;;3383642;42;20095;-63
2022/10/13 08:01:54;;;;;;;11.75;4.57;;;;;;;;;;3383637;42;20086;-59
2022/10/13 08:04:30;;;;;;;11.77;5.03;;;;;;;;;;3384090;42;20099;-59
2022/10/13 08:07:02;;;;;;;12.10;4.93;;;;;;;;;;3381923;42;20098;-56
2022/10/13 08:09:33;;;;;;;9.35;4.43;;;;;;;;;;3383910;42;20098;-63
2022/10/13 08:12:04;;;;;;;11.45;4.85;;;;;;;;;;3377143;42;20106;-60
2022/10/13 08:14:36;;;;;;;11.95;4.60;;;;;;;;;;3380902;42;20264;-59
2022/10/13 08:17:07;;;;;;;11.00;4.53;;;;;;;;;;3380396;42;20086;-63
2022/10/13 08:19:38;;;;;;;10.43;4.50;;;;;;;;;;3383920;42;20174;-58
2022/10/13 08:22:10;;;;;;;11.70;4.93;;;;;;;;;;3383674;42;20110;-59
2022/10/13 08:24:41;;;;;;;10.98;4.40;;;;;;;;;;3381240;42;20090;-62
2022/10/13 08:27:18;;;;;;;11.40;4.40;;;;;;;;;;3380119;42;20094;-59
2022/10/13 08:29:49;;;;;;;11.13;4.53;;;;;;;;;;3370876;42;20113;-60
2022/10/13 08:32:21;;;;;;;10.63;4.73;;;;;;;;;;3381766;42;20087;-61
2022/10/13 08:34:53;;;;;;;10.25;4.72;;;;;;;;;;3381251;42;20581;-58
2022/10/13 08:37:24;;;;;;;10.73;5.10;;;;;;;;;;3380914;42;20580;-58
2022/10/13 08:39:55;;;;;;;11.50;4.90;;;;;;;;;;3379451;42;20095;-63
2022/10/13 08:42:27;;;;;;;12.35;4.30;;;;;;;;;;3377451;42;20561;-60
2022/10/13 08:45:00;;;;;;;9.80;4.80;;;;;;;;;;3372784;42;20094;-61
2022/10/13 08:47:43;;;;;;;10.23;4.30;;;;;;;;;;3371851;42;20516;-61
2022/10/13 08:50:23;;;;;;;8.80;4.28;;;;;;;;;;3390065;42;20087;-61
2022/10/13 08:53:15;;;;;;;10.38;4.57;;;;;;;;;;3372728;42;20504;-61
2022/10/13 08:56:09;;;;;;;9.30;4.07;;;;;;;;;;3372992;42;20165;-61
2022/10/13 08:58:41;;;;;;;8.07;4.07;;;;;;;;;;3383412;42;20649;-61
2022/10/13 09:01:15;;;;;;;9.60;4.55;;;;;;;;;;3382405;42;20102;-63
2022/10/13 09:03:51;;;;;;;8.93;3.75;;;;;;;;;;3383352;42;20129;-60
2022/10/13 09:06:34;;;;;;;8.70;3.80;;;;;;;;;;3370535;42;20619;-58
2022/10/13 09:09:07;;;;;;;7.95;3.17;;;;;;;;;;3384062;42;20082;-63
2022/10/13 09:11:40;;;;;;;7.30;3.03;;;;;;;;;;3383799;42;20106;-64
2022/10/13 09:14:33;;;;;;;7.05;2.80;;;;;;;;;;3381770;42;20129;-61
2022/10/13 09:17:13;;;;;;;7.65;3.13;;;;;;;;;;3383787;42;20587;-63
2022/10/13 09:19:55;;;;;;;7.80;3.00;;;;;;;;;;3384821;42;20124;-63
2022/10/13 09:22:28;;;;;;;10.13;2.75;;;;;;;;;;3380829;42;20099;-62
2022/10/13 09:25:18;;;;;;;8.10;2.80;;;;;;;;;;3384467;42;20110;-63
2022/10/13 09:27:53;;;;;;;8.40;3.20;;;;;;;;;;3372274;42;20093;-64
2022/10/13 09:30:38;;;;;;;7.65;3.10;;;;;;;;;;3383139;42;20102;-60
2022/10/13 09:33:12;;;;;;;8.05;3.10;;;;;;;;;;3383025;42;20114;-60
2022/10/13 09:35:45;;;;;;;7.97;2.92;;;;;;;;;;3382742;42;20180;-60
2022/10/13 09:38:19;;;;;;;8.20;3.20;;;;;;;;;;3382601;42;20168;-62
2022/10/13 09:41:08;;;;;;;7.50;3.10;;;;;;;;;;3367533;42;20475;-60
2022/10/13 09:43:41;;;;;;;8.50;3.20;;;;;;;;;;3381672;42;20178;-64
2022/10/13 09:46:27;;;;;;;7.75;3.20;;;;;;;;;;3382877;42;20217;-63
2022/10/13 09:49:07;;;;;;;7.53;3.10;;;;;;;;;;3382682;42;20217;-59
2022/10/13 09:51:39;;;;;;;7.80;3.00;;;;;;;;;;3379977;42;20090;-62
2022/10/13 09:54:24;;;;;;;7.47;2.80;;;;;;;;;;3375382;42;20685;-65
2022/10/13 09:56:58;;;;;;;7.63;3.03;;;;;;;;;;3381017;42;20099;-61
2022/10/13 09:59:34;;;;;;;7.30;2.80;;;;;;;;;;3373659;42;20100;-60
2022/10/13 10:02:18;;;;;;;7.72;2.70;;;;;;;;;;3375745;42;20168;-62
2022/10/13 10:04:49;;;;;;;7.57;2.80;;;;;;;;;;3381310;42;20091;-60
2022/10/13 10:07:24;;;;;;;6.82;2.55;;;;;;;;;;3375502;42;20099;-63
2022/10/13 10:10:00;;;;;;;6.35;2.80;;;;;;;;;;3372864;42;20091;-62
2022/10/13 10:12:35;;;;;;;6.38;2.30;;;;;;;;;;3379287;42;20091;-61
2022/10/13 10:15:20;;;;;;;6.72;3.08;;;;;;;;;;3375663;42;20091;-63
2022/10/13 10:17:55;;;;;;;6.67;2.60;;;;;;;;;;3373140;42;20492;-61
2022/10/13 10:20:53;;;;;;;7.43;2.60;;;;;;;;;;3375211;42;20562;-63
2022/10/13 10:23:48;;;;;;;7.35;2.83;;;;;;;;;;3382972;42;20557;-61
2022/10/13 10:26:42;;;;;;;6.63;2.80;;;;;;;;;;3382514;42;20110;-61
2022/10/13 10:29:28;;;;;;;6.93;2.65;;;;;;;;;;3378403;42;20082;-62
2022/10/13 10:32:09;;;;;;;6.27;2.70;;;;;;;;;;3379315;42;20095;-61
2022/10/13 10:34:42;;;;;;;7.22;2.90;;;;;;;;;;3380332;42;20086;-60
2022/10/13 10:37:49;;;;;;;7.03;2.65;;;;;;;;;;3382161;42;20095;-61
2022/10/13 10:40:35;;;;;;;6.30;2.67;;;;;;;;;;3379230;42;20149;-61
2022/10/13 10:43:28;;;;;;;7.07;3.00;;;;;;;;;;3375259;42;20707;-62
2022/10/13 10:45:59;;;;;;;8.63;3.13;;;;;;;;;;3373293;42;20105;-62
2022/10/13 10:48:35;;;;;;;6.90;2.92;;;;;;;;;;3381578;42;20117;-62
2022/10/13 10:51:09;;;;;;;7.35;3.20;;;;;;;;;;3375853;42;20117;-65
2022/10/13 10:54:05;;;;;;;8.23;3.20;;;;;;;;;;3373529;42;20098;-61
2022/10/13 10:56:38;;;;;;;7.72;3.50;;;;;;;;;;3382447;42;20101;-60
2022/10/13 10:59:21;;;;;;;8.30;2.97;;;;;;;;;;3374734;42;20168;-61
2022/10/13 11:01:58;;;;;;;6.63;2.88;;;;;;;;;;3381854;42;20095;-59
2022/10/13 11:04:46;;;;;;;7.45;3.40;;;;;;;;;;3379638;42;20094;-63
2022/10/13 11:07:23;;;;;;;8.85;3.17;;;;;;;;;;3376641;42;20095;-60
2022/10/13 11:09:56;;;;;;;6.97;3.17;;;;;;;;;;3383063;42;20095;-65
2022/10/13 11:12:50;;;;;;;9.10;3.60;;;;;;;;;;3385296;42;20094;-65
2022/10/13 11:15:41;;;;;;;7.28;3.35;;;;;;;;;;3382381;42;20106;-65
2022/10/13 11:19:10;;;;;;;12.85;3.63;;;;;;;;;;3388506;42;20115;-66
2022/10/13 11:21:55;;;;;;;8.07;3.42;;;;;;;;;;3363595;42;20125;-63
2022/10/13 11:24:32;;;;;;;7.43;3.42;;;;;;;;;;3361436;42;20092;-65
2022/10/13 11:27:06;;;;;;;7.77;3.50;;;;;;;;;;3372265;42;20103;-65
2022/10/13 11:29:53;;;;;;;9.25;4.10;;;;;;;;;;3384700;42;20086;-63
2022/10/13 11:32:25;;;;;;;9.05;3.70;;;;;;;;;;3384666;42;20091;-64
2022/10/13 11:35:15;;;;;;;8.40;3.58;;;;;;;;;;3384462;42;20172;-63
2022/10/13 11:37:59;;;;;;;9.32;3.90;;;;;;;;;;3383563;42;20087;-63
2022/10/13 11:40:42;;;;;;;8.87;3.40;;;;;;;;;;3380511;42;20560;-63
2022/10/13 11:43:14;;;;;;;7.75;3.20;;;;;;;;;;3373846;42;20099;-62
2022/10/13 11:46:04;;;;;;;8.75;4.03;;;;;;;;;;3382434;42;20091;-60
2022/10/13 11:48:49;;;;;;;8.18;3.35;;;;;;;;;;3382787;42;20099;-62
2022/10/13 11:51:39;;;;;;;8.75;3.90;;;;;;;;;;3383126;42;20178;-63
2022/10/13 11:54:34;;;;;;;9.30;3.87;;;;;;;;;;3383692;42;20550;-61
2022/10/13 11:57:20;;;;;;;8.75;3.83;;;;;;;;;;3381680;42;20097;-63
2022/10/13 11:59:54;;;;;;;9.00;3.65;;;;;;;;;;3383343;42;20150;-61
2022/10/13 12:02:26;;;;;;;8.25;3.42;;;;;;;;;;3383746;42;20105;-63
2022/10/13 12:05:07;;;;;;;9.65;3.83;;;;;;;;;;3382192;42;20106;-61
2022/10/13 12:07:39;;;;;;;8.57;3.27;;;;;;;;;;3383824;42;20146;-65
2022/10/13 12:10:17;;;;;;;8.50;3.33;;;;;;;;;;3376326;42;20143;-65
2022/10/13 12:12:48;;;;;;;7.82;3.50;;;;;;;;;;3376312;42;20083;-65
2022/10/13 12:15:34;;;;;;;8.95;3.75;;;;;;;;;;3383103;42;20150;-65
2022/10/13 12:18:26;;;;;;;8.27;3.45;;;;;;;;;;3383540;42;20131;-64
2022/10/13 12:20:58;;;;;;;12.23;4.17;;;;;;;;;;3379855;42;20163;-62
2022/10/13 12:23:30;;;;;;;10.07;4.40;;;;;;;;;;3383562;42;20095;-63
2022/10/13 12:26:01;;;;;;;10.95;4.45;;;;;;;;;;3381329;42;20217;-59
2022/10/13 12:28:45;;;;;;;9.43;3.88;;;;;;;;;;3377756;42;20584;-62
2022/10/13 12:31:22;;;;;;;10.70;4.50;;;;;;;;;;3381057;42;20133;-62
2022/10/13 12:33:58;;;;;;;10.87;4.43;;;;;;;;;;3383334;42;20083;-61
2022/10/13 12:36:33;;;;;;;9.90;4.65;;;;;;;;;;3381413;42;20178;-63
2022/10/13 12:39:06;;;;;;;9.98;4.35;;;;;;;;;;3375982;42;20164;-61
2022/10/13 12:41:41;;;;;;;9.93;4.53;;;;;;;;;;3375842;42;20599;-64
2022/10/13 12:44:15;;;;;;;9.75;3.95;;;;;;;;;;3380328;42;20160;-62
2022/10/13 12:46:51;;;;;;;11.93;4.90;;;;;;;;;;3382875;42;20094;-64
2022/10/13 12:49:23;;;;;;;12.38;4.75;;;;;;;;;;3375769;42;20572;-62
2022/10/13 12:52:09;;;;;;;11.23;4.28;;;;;;;;;;3380172;42;20090;-62
2022/10/13 12:55:15;;;;;;;10.63;4.88;;;;;;;;;;3374676;42;20292;-63
2022/10/13 12:57:48;;;;;;;10.80;4.75;;;;;;;;;;3376668;42;20082;-63
2022/10/13 13:00:19;;;;;;;10.60;4.83;;;;;;;;;;3383107;42;20134;-62
2022/10/13 13:03:01;;;;;;;12.30;4.70;;;;;;;;;;3384010;42;20161;-62
2022/10/13 13:05:39;;;;;;;11.27;4.40;;;;;;;;;;3382646;42;20105;-63
2022/10/13 13:08:28;;;;;;;12.20;4.35;;;;;;;;;;3380685;42;20174;-61
2022/10/13 13:11:02;;;;;;;11.25;3.95;;;;;;;;;;3375435;42;20145;-63
2022/10/13 13:13:33;;;;;;;11.40;4.30;;;;;;;;;;3386487;42;20091;-62
2022/10/13 13:16:22;;;;;;;11.98;4.57;;;;;;;;;;3382190;42;20095;-62
2022/10/13 13:18:53;;;;;;;12.13;4.82;;;;;;;;;;3383272;42;20091;-59
2022/10/13 13:21:24;;;;;;;10.10;4.55;;;;;;;;;;3382513;42;20213;-64
2022/10/13 13:23:55;;;;;;;9.88;4.22;;;;;;;;;;3382656;42;20215;-61
2022/10/13 13:26:27;;;;;;;11.00;4.70;;;;;;;;;;3382830;42;20094;-62
2022/10/13 13:28:58;;;;;;;11.88;4.57;;;;;;;;;;3381813;42;20113;-64
2022/10/13 13:31:29;;;;;;;11.05;4.50;;;;;;;;;;3380590;42;20090;-63
2022/10/13 13:34:00;;;;;;;11.40;4.60;;;;;;;;;;3375121;42;20608;-64
2022/10/13 13:36:31;;;;;;;10.05;4.28;;;;;;;;;;3379627;42;20087;-63
2022/10/13 13:39:03;;;;;;;11.73;4.10;;;;;;;;;;3382791;42;20086;-64
2022/10/13 13:41:34;;;;;;;10.00;4.50;;;;;;;;;;3382786;42;20087;-60
2022/10/13 13:44:05;;;;;;;10.43;4.55;;;;;;;;;;3383954;42;20142;-62
2022/10/13 13:46:37;;;;;;;11.98;4.20;;;;;;;;;;3380808;42;20087;-62
2022/10/13 13:49:09;;;;;;;10.90;4.45;;;;;;;;;;3382706;42;20588;-66
2022/10/13 13:51:40;;;;;;;8.87;4.20;;;;;;;;;;3383000;42;20177;-61
2022/10/13 13:54:11;;;;;;;10.68;4.47;;;;;;;;;;3383121;42;20095;-63
2022/10/13 13:56:43;;;;;;;11.60;4.20;;;;;;;;;;3383992;42;20791;-63
2022/10/13 13:59:14;;;;;;;9.85;3.83;;;;;;;;;;3381035;42;20090;-67
2022/10/13 14:01:45;;;;;;;9.02;3.78;;;;;;;;;;3383448;42;20098;-60
2022/10/13 14:04:16;;;;;;;8.97;3.77;;;;;;;;;;3372682;42;20097;-65
2022/10/13 14:06:47;;;;;;;11.35;4.25;;;;;;;;;;3382675;42;20592;-63
2022/10/13 14:09:19;;;;;;;9.80;4.15;;;;;;;;;;3374830;42;20091;-64
2022/10/13 14:11:50;;;;;;;10.23;4.22;;;;;;;;;;3383407;42;20087;-63
2022/10/13 14:14:21;;;;;;;8.43;3.90;;;;;;;;;;3381933;42;20204;-63
2022/10/13 14:16:52;;;;;;;8.57;3.90;;;;;;;;;;3379162;42;20517;-61
2022/10/13 14:19:24;;;;;;;9.73;3.90;;;;;;;;;;3381840;42;20091;-61
2022/10/13 14:21:55;;;;;;;11.50;4.18;;;;;;;;;;3382023;42;20103;-63
2022/10/13 14:24:27;;;;;;;9.57;3.47;;;;;;;;;;3381792;42;20110;-65
2022/10/13 14:26:58;;;;;;;9.27;3.63;;;;;;;;;;3376205;42;20095;-62
2022/10/13 14:29:29;;;;;;;9.10;3.47;;;;;;;;;;3381657;42;20180;-61
2022/10/13 14:32:00;;;;;;;9.82;3.78;;;;;;;;;;3381687;42;20188;-66
2022/10/13 14:34:32;;;;;;;9.65;3.53;;;;;;;;;;3379467;42;20142;-64
2022/10/13 14:37:03;;;;;;;10.13;3.53;;;;;;;;;;3376196;42;20792;-63
2022/10/13 14:39:34;;;;;;;8.32;4.00;;;;;;;;;;3382123;42;20110;-63
2022/10/13 14:42:06;;;;;;;9.40;3.70;;;;;;;;;;3381032;42;20111;-61
2022/10/13 14:44:37;;;;;;;11.35;3.78;;;;;;;;;;3381714;42;20172;-62
2022/10/13 14:47:08;;;;;;;8.93;3.42;;;;;;;;;;3381990;42;20164;-61
2022/10/13 14:49:39;;;;;;;9.57;4.22;;;;;;;;;;3382140;42;20154;-63
2022/10/13 14:52:10;;;;;;;9.20;3.83;;;;;;;;;;3382198;42;20212;-62
2022/10/13 14:54:42;;;;;;;9.20;3.77;;;;;;;;;;3387885;42;20142;-61
2022/10/13 14:57:14;;;;;;;10.13;4.00;;;;;;;;;;3382416;42;20111;-61
2022/10/13 14:59:46;;;;;;;10.90;3.80;;;;;;;;;;3383334;42;20107;-64
2022/10/13 15:02:17;;;;;;;10.05;4.07;;;;;;;;;;3383284;42;20086;-62
2022/10/13 15:04:48;;;;;;;9.57;4.20;;;;;;;;;;3383134;42;20141;-63
2022/10/13 15:07:19;;;;;;;10.10;4.10;;;;;;;;;;3382512;42;20091;-63
2022/10/13 15:09:51;;;;;;;12.88;4.50;;;;;;;;;;3383006;42;20110;-62
2022/10/13 15:12:22;;;;;;;8.80;4.35;;;;;;;;;;3382454;42;20109;-63
2022/10/13 15:14:53;;;;;;;11.02;4.20;;;;;;;;;;3379818;42;20105;-63
2022/10/13 15:17:24;;;;;;;9.85;4.60;;;;;;;;;;3382507;42;20561;-63
2022/10/13 15:19:56;;;;;;;9.30;4.33;;;;;;;;;;3382248;42;20100;-62
2022/10/13 15:22:27;;;;;;;10.75;4.45;;;;;;;;;;3382184;42;20784;-64